sensor_id;sensor_type;location;lat;lon;timestamp;temperature;humidity
47022;DHT22;32779;52.264;6.154;2022-09-14T00:01:34;14.00;99.90
47022;DHT22;32779;52.264;6.154;2022-09-14T00:04:02;14.00;99.90
47022;DHT22;32779;52.264;6.154;2022-09-14T00:06:29;13.90;99.90
47022;DHT22;32779;52.264;6.154;2022-09-14T00:08:56;13.90;99.90
47022;DHT22;32779;52.264;6.154;2022-09-14T00:11:23;13.80;99.90
47022;DHT22;32779;52.264;6.154;2022-09-14T00:13:50;13.90;99.90
47022;DHT22;32779;52.264;6.154;2022-09-14T00:16:24;13.80;99.90
47022;DHT22;32779;52.264;6.154;2022-09-14T00:19:01;13.90;99.90
47022;DHT22;32779;52.264;6.154;2022-09-14T00:21:33;13.90;99.90
47022;DHT22;32779;52.264;6.154;2022-09-14T00:23:59;13.70;99.90
47022;DHT22;32779;52.264;6.154;2022-09-14T00:26:25;13.70;99.90
47022;DHT22;32779;52.264;6.154;2022-09-14T00:28:57;13.70;99.90
47022;DHT22;32779;52.264;6.154;2022-09-14T00:31:24;13.60;99.90
47022;DHT22;32779;52.264;6.154;2022-09-14T00:33:50;13.60;99.90
47022;DHT22;32779;52.264;6.154;2022-09-14T00:36:19;13.50;99.90
47022;DHT22;32779;52.264;6.154;2022-09-14T00:38:46;13.50;99.90
47022;DHT22;32779;52.264;6.154;2022-09-14T00:41:15;13.50;99.90
47022;DHT22;32779;52.264;6.154;2022-09-14T00:46:16;13.60;99.90
47022;DHT22;32779;52.264;6.154;2022-09-14T00:48:42;13.60;99.90
47022;DHT22;32779;52.264;6.154;2022-09-14T00:51:07;13.60;99.90
47022;DHT22;32779;52.264;6.154;2022-09-14T00:53:36;13.50;99.90
47022;DHT22;32779;52.264;6.154;2022-09-14T00:56:02;13.50;99.90
47022;DHT22;32779;52.264;6.154;2022-09-14T00:58:27;13.50;99.90
47022;DHT22;32779;52.264;6.154;2022-09-14T01:00:53;13.50;99.90
47022;DHT22;32779;52.264;6.154;2022-09-14T01:03:18;13.50;99.90
47022;DHT22;32779;52.264;6.154;2022-09-14T01:06:03;13.50;99.90
47022;DHT22;32779;52.264;6.154;2022-09-14T01:08:56;13.50;99.90
47022;DHT22;32779;52.264;6.154;2022-09-14T01:14:13;13.60;99.90
47022;DHT22;32779;52.264;6.154;2022-09-14T01:17:04;13.60;99.90
47022;DHT22;32779;52.264;6.154;2022-09-14T01:22:20;13.60;99.90
47022;DHT22;32779;52.264;6.154;2022-09-14T01:24:53;13.60;99.90
47022;DHT22;32779;52.264;6.154;2022-09-14T01:27:36;13.60;99.90
47022;DHT22;32779;52.264;6.154;2022-09-14T01:30:32;13.60;99.90
47022;DHT22;32779;52.264;6.154;2022-09-14T01:33:23;13.60;99.90
47022;DHT22;32779;52.264;6.154;2022-09-14T01:35:56;13.50;99.90
47022;DHT22;32779;52.264;6.154;2022-09-14T01:38:30;13.60;99.90
47022;DHT22;32779;52.264;6.154;2022-09-14T01:40:58;13.50;99.90
47022;DHT22;32779;52.264;6.154;2022-09-14T01:43:35;13.60;99.90
47022;DHT22;32779;52.264;6.154;2022-09-14T01:46:17;13.60;99.90
47022;DHT22;32779;52.264;6.154;2022-09-14T01:49:02;13.60;99.90
47022;DHT22;32779;52.264;6.154;2022-09-14T01:51:47;13.60;99.90
47022;DHT22;32779;52.264;6.154;2022-09-14T01:56:51;13.70;99.90
47022;DHT22;32779;52.264;6.154;2022-09-14T01:59:23;13.70;99.90
47022;DHT22;32779;52.264;6.154;2022-09-14T02:02:10;13.70;99.90
47022;DHT22;32779;52.264;6.154;2022-09-14T02:04:52;13.70;99.90
47022;DHT22;32779;52.264;6.154;2022-09-14T02:07:18;13.70;99.90
47022;DHT22;32779;52.264;6.154;2022-09-14T02:09:46;13.70;99.90
47022;DHT22;32779;52.264;6.154;2022-09-14T02:12:12;13.70;99.90
47022;DHT22;32779;52.264;6.154;2022-09-14T02:14:38;13.70;99.90
47022;DHT22;32779;52.264;6.154;2022-09-14T02:17:04;13.70;99.90
47022;DHT22;32779;52.264;6.154;2022-09-14T02:19:38;13.70;99.90
47022;DHT22;32779;52.264;6.154;2022-09-14T02:22:05;13.80;99.90
47022;DHT22;32779;52.264;6.154;2022-09-14T02:24:30;13.80;99.90
47022;DHT22;32779;52.264;6.154;2022-09-14T02:26:56;13.80;99.90
47022;DHT22;32779;52.264;6.154;2022-09-14T02:29:23;13.80;99.90
47022;DHT22;32779;52.264;6.154;2022-09-14T02:32:00;13.80;99.90
47022;DHT22;32779;52.264;6.154;2022-09-14T02:46:03;13.80;99.90
47022;DHT22;32779;52.264;6.154;2022-09-14T02:48:40;13.80;99.90
47022;DHT22;32779;52.264;6.154;2022-09-14T02:53:52;13.80;99.90
47022;DHT22;32779;52.264;6.154;2022-09-14T02:56:20;13.80;99.90
47022;DHT22;32779;52.264;6.154;2022-09-14T02:58:46;13.80;99.90
47022;DHT22;32779;52.264;6.154;2022-09-14T03:01:17;13.80;99.90
47022;DHT22;32779;52.264;6.154;2022-09-14T03:03:42;13.80;99.90
47022;DHT22;32779;52.264;6.154;2022-09-14T03:06:08;13.80;99.90
47022;DHT22;32779;52.264;6.154;2022-09-14T03:08:34;13.80;99.90
47022;DHT22;32779;52.264;6.154;2022-09-14T03:11:00;13.80;99.90
47022;DHT22;32779;52.264;6.154;2022-09-14T03:13:25;13.80;99.90
47022;DHT22;32779;52.264;6.154;2022-09-14T03:15:51;13.90;99.90
47022;DHT22;32779;52.264;6.154;2022-09-14T03:18:17;13.90;99.90
47022;DHT22;32779;52.264;6.154;2022-09-14T03:20:43;13.90;99.90
47022;DHT22;32779;52.264;6.154;2022-09-14T03:23:09;13.90;99.90
47022;DHT22;32779;52.264;6.154;2022-09-14T03:25:40;13.90;99.90
47022;DHT22;32779;52.264;6.154;2022-09-14T03:28:06;13.90;99.90
47022;DHT22;32779;52.264;6.154;2022-09-14T03:30:32;13.90;99.90
47022;DHT22;32779;52.264;6.154;2022-09-14T03:32:58;13.90;99.90
47022;DHT22;32779;52.264;6.154;2022-09-14T03:35:24;13.90;99.90
47022;DHT22;32779;52.264;6.154;2022-09-14T03:37:50;14.00;99.90
47022;DHT22;32779;52.264;6.154;2022-09-14T03:40:16;14.00;99.90
47022;DHT22;32779;52.264;6.154;2022-09-14T03:42:46;14.00;99.90
47022;DHT22;32779;52.264;6.154;2022-09-14T03:45:14;14.00;99.90
47022;DHT22;32779;52.264;6.154;2022-09-14T03:47:40;14.00;99.90
47022;DHT22;32779;52.264;6.154;2022-09-14T03:50:08;14.00;99.90
47022;DHT22;32779;52.264;6.154;2022-09-14T03:52:35;14.10;99.90
47022;DHT22;32779;52.264;6.154;2022-09-14T03:55:01;14.10;99.90
47022;DHT22;32779;52.264;6.154;2022-09-14T03:57:27;14.10;99.90
47022;DHT22;32779;52.264;6.154;2022-09-14T03:59:53;14.10;99.90
47022;DHT22;32779;52.264;6.154;2022-09-14T04:02:18;14.10;99.90
47022;DHT22;32779;52.264;6.154;2022-09-14T04:04:44;14.10;99.90
47022;DHT22;32779;52.264;6.154;2022-09-14T04:07:15;14.10;99.90
47022;DHT22;32779;52.264;6.154;2022-09-14T04:09:42;14.10;99.90
47022;DHT22;32779;52.264;6.154;2022-09-14T04:12:08;14.10;99.90
47022;DHT22;32779;52.264;6.154;2022-09-14T04:14:33;14.10;99.90
47022;DHT22;32779;52.264;6.154;2022-09-14T04:16:59;14.20;99.90
47022;DHT22;32779;52.264;6.154;2022-09-14T04:19:24;14.20;99.90
47022;DHT22;32779;52.264;6.154;2022-09-14T04:21:50;14.20;99.90
47022;DHT22;32779;52.264;6.154;2022-09-14T04:24:16;14.20;99.90
47022;DHT22;32779;52.264;6.154;2022-09-14T04:26:42;14.20;99.90
47022;DHT22;32779;52.264;6.154;2022-09-14T04:29:09;14.20;99.90
47022;DHT22;32779;52.264;6.154;2022-09-14T04:31:35;14.20;99.90
47022;DHT22;32779;52.264;6.154;2022-09-14T04:34:01;14.20;99.90
47022;DHT22;32779;52.264;6.154;2022-09-14T04:36:27;14.20;99.90
47022;DHT22;32779;52.264;6.154;2022-09-14T04:38:56;14.20;99.90
47022;DHT22;32779;52.264;6.154;2022-09-14T04:41:22;14.20;99.90
47022;DHT22;32779;52.264;6.154;2022-09-14T04:43:49;14.20;99.90
47022;DHT22;32779;52.264;6.154;2022-09-14T04:46:17;14.20;99.90
47022;DHT22;32779;52.264;6.154;2022-09-14T04:48:43;14.20;99.90
47022;DHT22;32779;52.264;6.154;2022-09-14T04:51:15;14.20;99.90
47022;DHT22;32779;52.264;6.154;2022-09-14T04:53:43;14.20;99.90
47022;DHT22;32779;52.264;6.154;2022-09-14T04:56:10;14.20;99.90
47022;DHT22;32779;52.264;6.154;2022-09-14T04:58:37;14.20;99.90
47022;DHT22;32779;52.264;6.154;2022-09-14T05:01:12;14.20;99.90
47022;DHT22;32779;52.264;6.154;2022-09-14T05:03:38;14.20;99.90
47022;DHT22;32779;52.264;6.154;2022-09-14T05:06:15;14.20;99.90
47022;DHT22;32779;52.264;6.154;2022-09-14T05:08:41;14.20;99.90
47022;DHT22;32779;52.264;6.154;2022-09-14T05:11:08;14.20;99.90
47022;DHT22;32779;52.264;6.154;2022-09-14T05:13:34;14.20;99.90
47022;DHT22;32779;52.264;6.154;2022-09-14T05:16:10;14.30;99.90
47022;DHT22;32779;52.264;6.154;2022-09-14T05:18:38;14.30;99.90
47022;DHT22;32779;52.264;6.154;2022-09-14T05:21:06;14.30;99.90
47022;DHT22;32779;52.264;6.154;2022-09-14T05:23:32;14.30;99.90
47022;DHT22;32779;52.264;6.154;2022-09-14T05:25:59;14.20;99.90
47022;DHT22;32779;52.264;6.154;2022-09-14T05:28:25;14.30;99.90
47022;DHT22;32779;52.264;6.154;2022-09-14T05:30:51;14.30;99.90
47022;DHT22;32779;52.264;6.154;2022-09-14T05:33:18;14.20;99.90
47022;DHT22;32779;52.264;6.154;2022-09-14T05:35:44;14.30;99.90
47022;DHT22;32779;52.264;6.154;2022-09-14T05:38:10;14.30;99.90
47022;DHT22;32779;52.264;6.154;2022-09-14T05:40:36;14.30;99.90
47022;DHT22;32779;52.264;6.154;2022-09-14T05:43:01;14.30;99.90
47022;DHT22;32779;52.264;6.154;2022-09-14T05:45:27;14.30;99.90
47022;DHT22;32779;52.264;6.154;2022-09-14T05:47:52;14.30;99.90
47022;DHT22;32779;52.264;6.154;2022-09-14T05:50:18;14.30;99.90
47022;DHT22;32779;52.264;6.154;2022-09-14T05:52:43;14.30;99.90
47022;DHT22;32779;52.264;6.154;2022-09-14T05:55:09;14.30;99.90
47022;DHT22;32779;52.264;6.154;2022-09-14T05:57:34;14.30;99.90
47022;DHT22;32779;52.264;6.154;2022-09-14T06:00:00;14.30;99.90
47022;DHT22;32779;52.264;6.154;2022-09-14T06:02:26;14.30;99.90
47022;DHT22;32779;52.264;6.154;2022-09-14T06:04:51;14.30;99.90
47022;DHT22;32779;52.264;6.154;2022-09-14T06:07:16;14.40;99.90
47022;DHT22;32779;52.264;6.154;2022-09-14T06:09:42;14.30;99.90
47022;DHT22;32779;52.264;6.154;2022-09-14T06:12:08;14.40;99.90
47022;DHT22;32779;52.264;6.154;2022-09-14T06:14:33;14.40;99.90
47022;DHT22;32779;52.264;6.154;2022-09-14T06:16:59;14.50;99.90
47022;DHT22;32779;52.264;6.154;2022-09-14T06:19:25;14.50;99.90
47022;DHT22;32779;52.264;6.154;2022-09-14T06:21:51;14.50;99.90
47022;DHT22;32779;52.264;6.154;2022-09-14T06:24:17;14.60;99.90
47022;DHT22;32779;52.264;6.154;2022-09-14T06:26:42;14.60;99.90
47022;DHT22;32779;52.264;6.154;2022-09-14T06:29:08;14.70;99.90
47022;DHT22;32779;52.264;6.154;2022-09-14T06:31:33;14.70;99.90
47022;DHT22;32779;52.264;6.154;2022-09-14T06:33:59;14.80;99.90
47022;DHT22;32779;52.264;6.154;2022-09-14T06:36:25;14.90;99.90
47022;DHT22;32779;52.264;6.154;2022-09-14T06:38:51;14.90;99.90
47022;DHT22;32779;52.264;6.154;2022-09-14T06:41:19;14.90;99.90
47022;DHT22;32779;52.264;6.154;2022-09-14T06:43:46;15.00;99.90
47022;DHT22;32779;52.264;6.154;2022-09-14T06:46:13;14.90;99.90
47022;DHT22;32779;52.264;6.154;2022-09-14T06:49:00;15.00;99.90
47022;DHT22;32779;52.264;6.154;2022-09-14T06:51:33;15.00;99.90
47022;DHT22;32779;52.264;6.154;2022-09-14T06:54:00;15.00;99.90
47022;DHT22;32779;52.264;6.154;2022-09-14T06:56:27;15.00;99.90
47022;DHT22;32779;52.264;6.154;2022-09-14T06:58:55;15.00;99.90
47022;DHT22;32779;52.264;6.154;2022-09-14T07:01:21;15.00;99.90
47022;DHT22;32779;52.264;6.154;2022-09-14T07:03:47;15.00;99.90
47022;DHT22;32779;52.264;6.154;2022-09-14T07:06:14;15.00;99.90
47022;DHT22;32779;52.264;6.154;2022-09-14T07:08:40;15.00;99.90
47022;DHT22;32779;52.264;6.154;2022-09-14T07:11:07;15.00;99.90
47022;DHT22;32779;52.264;6.154;2022-09-14T07:13:34;15.00;99.90
47022;DHT22;32779;52.264;6.154;2022-09-14T07:15:59;15.10;99.90
47022;DHT22;32779;52.264;6.154;2022-09-14T07:18:25;15.10;99.90
47022;DHT22;32779;52.264;6.154;2022-09-14T07:21:16;15.20;99.90
47022;DHT22;32779;52.264;6.154;2022-09-14T07:23:44;15.30;99.90
47022;DHT22;32779;52.264;6.154;2022-09-14T07:26:14;15.30;99.90
47022;DHT22;32779;52.264;6.154;2022-09-14T07:28:40;15.40;99.90
47022;DHT22;32779;52.264;6.154;2022-09-14T07:31:18;15.50;99.90
47022;DHT22;32779;52.264;6.154;2022-09-14T07:33:44;15.50;99.90
47022;DHT22;32779;52.264;6.154;2022-09-14T07:36:11;15.60;99.90
47022;DHT22;32779;52.264;6.154;2022-09-14T07:38:37;15.60;99.90
47022;DHT22;32779;52.264;6.154;2022-09-14T07:41:03;15.70;99.90
47022;DHT22;32779;52.264;6.154;2022-09-14T07:43:29;15.70;99.90
47022;DHT22;32779;52.264;6.154;2022-09-14T07:45:55;15.70;99.90
47022;DHT22;32779;52.264;6.154;2022-09-14T07:48:21;15.70;99.90
47022;DHT22;32779;52.264;6.154;2022-09-14T07:50:47;15.70;99.90
47022;DHT22;32779;52.264;6.154;2022-09-14T07:53:13;15.70;99.90
47022;DHT22;32779;52.264;6.154;2022-09-14T07:55:39;15.70;99.90
47022;DHT22;32779;52.264;6.154;2022-09-14T07:58:05;15.70;99.90
47022;DHT22;32779;52.264;6.154;2022-09-14T08:00:31;15.80;99.90
47022;DHT22;32779;52.264;6.154;2022-09-14T08:02:57;15.80;99.90
47022;DHT22;32779;52.264;6.154;2022-09-14T08:05:23;15.90;99.90
47022;DHT22;32779;52.264;6.154;2022-09-14T08:07:54;16.00;99.90
47022;DHT22;32779;52.264;6.154;2022-09-14T08:10:20;16.10;99.90
47022;DHT22;32779;52.264;6.154;2022-09-14T08:12:49;16.10;99.90
47022;DHT22;32779;52.264;6.154;2022-09-14T08:15:14;16.20;99.90
47022;DHT22;32779;52.264;6.154;2022-09-14T08:17:40;16.20;99.90
47022;DHT22;32779;52.264;6.154;2022-09-14T08:20:05;16.20;99.90
47022;DHT22;32779;52.264;6.154;2022-09-14T08:22:31;16.20;99.90
47022;DHT22;32779;52.264;6.154;2022-09-14T08:24:57;16.30;99.90
47022;DHT22;32779;52.264;6.154;2022-09-14T08:27:22;16.30;99.90
47022;DHT22;32779;52.264;6.154;2022-09-14T08:29:48;16.30;99.90
47022;DHT22;32779;52.264;6.154;2022-09-14T08:32:13;16.30;99.90
47022;DHT22;32779;52.264;6.154;2022-09-14T08:34:38;16.40;99.90
47022;DHT22;32779;52.264;6.154;2022-09-14T08:37:04;16.40;99.90
47022;DHT22;32779;52.264;6.154;2022-09-14T08:39:30;16.50;99.90
47022;DHT22;32779;52.264;6.154;2022-09-14T08:41:56;16.50;99.90
47022;DHT22;32779;52.264;6.154;2022-09-14T08:44:27;16.50;99.90
47022;DHT22;32779;52.264;6.154;2022-09-14T08:47:03;16.70;99.90
47022;DHT22;32779;52.264;6.154;2022-09-14T08:51:55;16.70;99.90
47022;DHT22;32779;52.264;6.154;2022-09-14T08:54:21;16.70;99.90
47022;DHT22;32779;52.264;6.154;2022-09-14T08:56:49;16.80;99.90
47022;DHT22;32779;52.264;6.154;2022-09-14T08:59:44;16.90;99.90
47022;DHT22;32779;52.264;6.154;2022-09-14T09:08:29;17.00;99.90
47022;DHT22;32779;52.264;6.154;2022-09-14T09:10:51;17.00;99.90
47022;DHT22;32779;52.264;6.154;2022-09-14T09:13:22;16.90;99.90
47022;DHT22;32779;52.264;6.154;2022-09-14T09:15:54;16.90;99.90
47022;DHT22;32779;52.264;6.154;2022-09-14T09:23:32;16.90;99.90
47022;DHT22;32779;52.264;6.154;2022-09-14T09:26:03;16.90;99.90
47022;DHT22;32779;52.264;6.154;2022-09-14T09:28:30;17.00;99.90
47022;DHT22;32779;52.264;6.154;2022-09-14T09:31:04;17.10;99.90
47022;DHT22;32779;52.264;6.154;2022-09-14T09:33:31;17.10;99.90
47022;DHT22;32779;52.264;6.154;2022-09-14T09:35:57;17.20;99.90
47022;DHT22;32779;52.264;6.154;2022-09-14T09:38:26;17.20;99.90
47022;DHT22;32779;52.264;6.154;2022-09-14T09:41:01;17.20;99.90
47022;DHT22;32779;52.264;6.154;2022-09-14T09:43:28;17.30;99.90
47022;DHT22;32779;52.264;6.154;2022-09-14T09:45:58;17.40;99.90
47022;DHT22;32779;52.264;6.154;2022-09-14T09:48:44;17.40;99.90
47022;DHT22;32779;52.264;6.154;2022-09-14T09:51:13;17.50;99.90
47022;DHT22;32779;52.264;6.154;2022-09-14T09:53:48;17.50;99.90
47022;DHT22;32779;52.264;6.154;2022-09-14T09:56:20;17.50;99.90
47022;DHT22;32779;52.264;6.154;2022-09-14T09:58:47;17.50;99.90
47022;DHT22;32779;52.264;6.154;2022-09-14T10:01:26;17.60;99.90
47022;DHT22;32779;52.264;6.154;2022-09-14T10:06:28;17.60;99.90
47022;DHT22;32779;52.264;6.154;2022-09-14T10:08:55;17.70;99.90
47022;DHT22;32779;52.264;6.154;2022-09-14T10:11:33;17.60;99.90
47022;DHT22;32779;52.264;6.154;2022-09-14T10:14:01;17.70;99.90
47022;DHT22;32779;52.264;6.154;2022-09-14T10:16:33;17.70;99.90
47022;DHT22;32779;52.264;6.154;2022-09-14T10:19:00;17.70;99.90
47022;DHT22;32779;52.264;6.154;2022-09-14T10:21:28;17.80;99.90
47022;DHT22;32779;52.264;6.154;2022-09-14T10:24:24;17.80;99.90
47022;DHT22;32779;52.264;6.154;2022-09-14T10:26:50;17.90;99.90
47022;DHT22;32779;52.264;6.154;2022-09-14T10:29:49;17.90;99.90
47022;DHT22;32779;52.264;6.154;2022-09-14T10:32:18;18.00;99.90
47022;DHT22;32779;52.264;6.154;2022-09-14T10:34:44;18.10;99.90
47022;DHT22;32779;52.264;6.154;2022-09-14T10:40:09;18.20;99.90
47022;DHT22;32779;52.264;6.154;2022-09-14T10:43:01;18.30;99.90
47022;DHT22;32779;52.264;6.154;2022-09-14T10:45:34;18.30;99.90
47022;DHT22;32779;52.264;6.154;2022-09-14T10:48:29;18.40;99.90
47022;DHT22;32779;52.264;6.154;2022-09-14T10:59:37;18.50;99.90
47022;DHT22;32779;52.264;6.154;2022-09-14T11:07:29;18.60;99.90
47022;DHT22;32779;52.264;6.154;2022-09-14T11:13:05;18.60;99.90
47022;DHT22;32779;52.264;6.154;2022-09-14T11:15:43;18.70;99.90
47022;DHT22;32779;52.264;6.154;2022-09-14T11:21:09;18.80;99.90
47022;DHT22;32779;52.264;6.154;2022-09-14T11:26:31;18.80;99.90
47022;DHT22;32779;52.264;6.154;2022-09-14T11:29:20;18.90;99.90
47022;DHT22;32779;52.264;6.154;2022-09-14T11:32:04;18.90;99.90
47022;DHT22;32779;52.264;6.154;2022-09-14T11:34:58;18.90;99.90
47022;DHT22;32779;52.264;6.154;2022-09-14T11:37:46;18.90;99.90
47022;DHT22;32779;52.264;6.154;2022-09-14T11:43:14;18.90;99.90
47022;DHT22;32779;52.264;6.154;2022-09-14T11:45:49;18.90;99.90
47022;DHT22;32779;52.264;6.154;2022-09-14T11:48:34;18.90;99.90
47022;DHT22;32779;52.264;6.154;2022-09-14T11:53:40;18.90;99.90
47022;DHT22;32779;52.264;6.154;2022-09-14T11:56:19;18.90;99.90
47022;DHT22;32779;52.264;6.154;2022-09-14T11:58:49;19.00;99.90
47022;DHT22;32779;52.264;6.154;2022-09-14T12:01:33;19.00;99.90
47022;DHT22;32779;52.264;6.154;2022-09-14T12:04:12;19.00;99.90
47022;DHT22;32779;52.264;6.154;2022-09-14T12:11:38;19.20;99.90
47022;DHT22;32779;52.264;6.154;2022-09-14T12:19:46;19.30;99.90
47022;DHT22;32779;52.264;6.154;2022-09-14T12:25:01;19.30;99.90
47022;DHT22;32779;52.264;6.154;2022-09-14T12:27:34;19.30;99.90
47022;DHT22;32779;52.264;6.154;2022-09-14T12:30:00;19.40;99.90
47022;DHT22;32779;52.264;6.154;2022-09-14T12:32:39;19.30;99.90
47022;DHT22;32779;52.264;6.154;2022-09-14T12:35:34;19.30;99.90
47022;DHT22;32779;52.264;6.154;2022-09-14T12:41:01;19.30;99.90
47022;DHT22;32779;52.264;6.154;2022-09-14T12:56:36;19.20;99.90
47022;DHT22;32779;52.264;6.154;2022-09-14T12:59:32;19.20;99.90
47022;DHT22;32779;52.264;6.154;2022-09-14T13:02:32;19.10;99.90
47022;DHT22;32779;52.264;6.154;2022-09-14T13:05:00;19.10;99.90
47022;DHT22;32779;52.264;6.154;2022-09-14T13:07:31;19.00;99.90
47022;DHT22;32779;52.264;6.154;2022-09-14T13:09:58;19.00;99.90
47022;DHT22;32779;52.264;6.154;2022-09-14T13:12:42;19.00;99.90
47022;DHT22;32779;52.264;6.154;2022-09-14T13:15:21;19.00;99.90
47022;DHT22;32779;52.264;6.154;2022-09-14T13:18:05;19.00;99.90
47022;DHT22;32779;52.264;6.154;2022-09-14T13:20:33;19.10;99.90
47022;DHT22;32779;52.264;6.154;2022-09-14T13:23:02;19.10;99.90
47022;DHT22;32779;52.264;6.154;2022-09-14T13:25:33;19.20;99.90
47022;DHT22;32779;52.264;6.154;2022-09-14T13:28:04;19.10;99.90
47022;DHT22;32779;52.264;6.154;2022-09-14T13:30:31;19.20;99.90
47022;DHT22;32779;52.264;6.154;2022-09-14T13:32:57;19.10;99.90
47022;DHT22;32779;52.264;6.154;2022-09-14T13:35:35;19.10;99.90
47022;DHT22;32779;52.264;6.154;2022-09-14T13:38:17;19.10;99.90
47022;DHT22;32779;52.264;6.154;2022-09-14T13:40:45;19.10;99.90
47022;DHT22;32779;52.264;6.154;2022-09-14T13:43:11;19.10;99.90
47022;DHT22;32779;52.264;6.154;2022-09-14T13:45:38;19.10;99.90
47022;DHT22;32779;52.264;6.154;2022-09-14T13:48:04;19.10;99.90
47022;DHT22;32779;52.264;6.154;2022-09-14T13:50:30;19.20;99.90
47022;DHT22;32779;52.264;6.154;2022-09-14T13:52:56;19.20;99.90
47022;DHT22;32779;52.264;6.154;2022-09-14T14:00:57;19.30;99.90
47022;DHT22;32779;52.264;6.154;2022-09-14T14:03:52;19.40;99.90
47022;DHT22;32779;52.264;6.154;2022-09-14T14:06:33;19.50;99.90
47022;DHT22;32779;52.264;6.154;2022-09-14T14:09:03;19.50;99.90
47022;DHT22;32779;52.264;6.154;2022-09-14T14:11:31;19.50;99.90
47022;DHT22;32779;52.264;6.154;2022-09-14T14:14:19;19.60;99.90
47022;DHT22;32779;52.264;6.154;2022-09-14T14:19:37;19.70;99.90
47022;DHT22;32779;52.264;6.154;2022-09-14T14:24:45;19.70;99.90
47022;DHT22;32779;52.264;6.154;2022-09-14T14:27:41;19.70;99.90
47022;DHT22;32779;52.264;6.154;2022-09-14T14:30:16;19.80;99.90
47022;DHT22;32779;52.264;6.154;2022-09-14T14:32:42;19.70;99.90
47022;DHT22;32779;52.264;6.154;2022-09-14T14:35:16;19.80;99.90
47022;DHT22;32779;52.264;6.154;2022-09-14T14:37:42;19.80;99.90
47022;DHT22;32779;52.264;6.154;2022-09-14T14:40:11;19.80;99.90
47022;DHT22;32779;52.264;6.154;2022-09-14T14:42:37;19.80;99.90
47022;DHT22;32779;52.264;6.154;2022-09-14T14:45:03;19.90;99.90
47022;DHT22;32779;52.264;6.154;2022-09-14T14:47:29;19.90;99.90
47022;DHT22;32779;52.264;6.154;2022-09-14T14:49:55;20.00;99.90
47022;DHT22;32779;52.264;6.154;2022-09-14T14:52:20;19.90;99.90
47022;DHT22;32779;52.264;6.154;2022-09-14T14:54:46;19.90;99.90
47022;DHT22;32779;52.264;6.154;2022-09-14T14:57:12;19.90;99.90
47022;DHT22;32779;52.264;6.154;2022-09-14T14:59:37;19.80;99.90
47022;DHT22;32779;52.264;6.154;2022-09-14T15:02:04;19.70;99.90
47022;DHT22;32779;52.264;6.154;2022-09-14T15:04:31;19.60;99.90
47022;DHT22;32779;52.264;6.154;2022-09-14T15:06:56;19.50;99.90
47022;DHT22;32779;52.264;6.154;2022-09-14T15:09:25;19.60;99.90
47022;DHT22;32779;52.264;6.154;2022-09-14T15:11:52;19.60;99.90
47022;DHT22;32779;52.264;6.154;2022-09-14T15:14:23;19.60;99.90
47022;DHT22;32779;52.264;6.154;2022-09-14T15:16:50;19.60;99.90
47022;DHT22;32779;52.264;6.154;2022-09-14T15:19:16;19.60;99.90
47022;DHT22;32779;52.264;6.154;2022-09-14T15:21:42;19.60;99.90
47022;DHT22;32779;52.264;6.154;2022-09-14T15:24:09;19.60;99.90
47022;DHT22;32779;52.264;6.154;2022-09-14T15:26:35;19.50;99.90
47022;DHT22;32779;52.264;6.154;2022-09-14T15:29:02;19.50;99.90
47022;DHT22;32779;52.264;6.154;2022-09-14T15:31:28;19.60;99.90
47022;DHT22;32779;52.264;6.154;2022-09-14T15:33:54;19.60;99.90
47022;DHT22;32779;52.264;6.154;2022-09-14T15:36:52;19.60;99.90
47022;DHT22;32779;52.264;6.154;2022-09-14T15:39:25;19.60;99.90
47022;DHT22;32779;52.264;6.154;2022-09-14T15:41:51;19.60;99.90
47022;DHT22;32779;52.264;6.154;2022-09-14T15:44:17;19.70;99.90
47022;DHT22;32779;52.264;6.154;2022-09-14T15:46:43;19.70;99.90
47022;DHT22;32779;52.264;6.154;2022-09-14T15:49:22;19.80;99.90
47022;DHT22;32779;52.264;6.154;2022-09-14T15:51:50;19.80;99.90
47022;DHT22;32779;52.264;6.154;2022-09-14T15:54:17;19.80;99.90
47022;DHT22;32779;52.264;6.154;2022-09-14T15:56:52;19.90;99.90
47022;DHT22;32779;52.264;6.154;2022-09-14T15:59:18;19.90;99.90
47022;DHT22;32779;52.264;6.154;2022-09-14T16:01:45;19.90;99.50
47022;DHT22;32779;52.264;6.154;2022-09-14T16:04:11;20.00;99.10
47022;DHT22;32779;52.264;6.154;2022-09-14T16:06:36;19.90;99.10
47022;DHT22;32779;52.264;6.154;2022-09-14T16:09:04;19.90;98.80
47022;DHT22;32779;52.264;6.154;2022-09-14T16:11:30;19.90;99.10
47022;DHT22;32779;52.264;6.154;2022-09-14T16:13:56;19.90;98.60
47022;DHT22;32779;52.264;6.154;2022-09-14T16:16:22;19.90;98.60
47022;DHT22;32779;52.264;6.154;2022-09-14T16:18:48;19.80;98.20
47022;DHT22;32779;52.264;6.154;2022-09-14T16:21:22;19.80;98.10
47022;DHT22;32779;52.264;6.154;2022-09-14T16:23:51;19.80;97.80
47022;DHT22;32779;52.264;6.154;2022-09-14T16:26:22;19.70;98.20
47022;DHT22;32779;52.264;6.154;2022-09-14T16:28:49;19.60;98.50
47022;DHT22;32779;52.264;6.154;2022-09-14T16:31:20;19.60;98.40
47022;DHT22;32779;52.264;6.154;2022-09-14T16:33:49;19.60;98.50
47022;DHT22;32779;52.264;6.154;2022-09-14T16:36:17;19.50;98.70
47022;DHT22;32779;52.264;6.154;2022-09-14T16:38:44;19.50;98.90
47022;DHT22;32779;52.264;6.154;2022-09-14T16:41:11;19.40;98.90
47022;DHT22;32779;52.264;6.154;2022-09-14T16:43:36;19.40;99.20
47022;DHT22;32779;52.264;6.154;2022-09-14T16:46:13;19.40;99.60
47022;DHT22;32779;52.264;6.154;2022-09-14T16:48:45;19.30;99.80
47022;DHT22;32779;52.264;6.154;2022-09-14T16:51:13;19.20;99.90
47022;DHT22;32779;52.264;6.154;2022-09-14T16:53:40;19.10;99.90
47022;DHT22;32779;52.264;6.154;2022-09-14T16:56:12;19.00;99.90
47022;DHT22;32779;52.264;6.154;2022-09-14T16:58:39;18.90;99.90
47022;DHT22;32779;52.264;6.154;2022-09-14T17:01:08;18.80;99.90
47022;DHT22;32779;52.264;6.154;2022-09-14T17:03:36;18.80;99.90
47022;DHT22;32779;52.264;6.154;2022-09-14T17:06:08;18.70;99.90
47022;DHT22;32779;52.264;6.154;2022-09-14T17:08:34;18.70;99.90
47022;DHT22;32779;52.264;6.154;2022-09-14T17:11:01;18.60;99.90
47022;DHT22;32779;52.264;6.154;2022-09-14T17:13:28;18.50;99.90
47022;DHT22;32779;52.264;6.154;2022-09-14T17:16:13;18.50;99.90
47022;DHT22;32779;52.264;6.154;2022-09-14T17:18:40;18.40;99.90
47022;DHT22;32779;52.264;6.154;2022-09-14T17:21:08;18.30;99.90
47022;DHT22;32779;52.264;6.154;2022-09-14T17:23:35;18.30;99.90
47022;DHT22;32779;52.264;6.154;2022-09-14T17:26:06;18.20;99.90
47022;DHT22;32779;52.264;6.154;2022-09-14T17:28:32;18.20;99.90
47022;DHT22;32779;52.264;6.154;2022-09-14T17:31:00;18.20;99.90
47022;DHT22;32779;52.264;6.154;2022-09-14T17:33:26;18.00;99.90
47022;DHT22;32779;52.264;6.154;2022-09-14T17:35:54;18.00;99.90
47022;DHT22;32779;52.264;6.154;2022-09-14T17:38:21;18.00;99.90
47022;DHT22;32779;52.264;6.154;2022-09-14T17:40:47;17.90;99.90